Time;durP1;ratioP1;P1;durP2;ratioP2;P2;SDS_P1;SDS_P2;PMS_P1;PMS_P2;Temp;Humidity;BMP_temperature;BMP_pressure;BME280_temperature;BME280_humidity;BME280_pressure;Samples;Min_cycle;Max_cycle;Signal;HPM_P1;HPM_P2
2024/02/29 00:01:24;;;;;;;10.60;7.60;;;0.80;99.90;;;;;;468137;251;27474;-74
2024/02/29 00:03:25;;;;;;;16.42;9.82;;;0.80;99.90;;;;;;476991;249;27411;-73
2024/02/29 00:05:26;;;;;;;15.40;9.70;;;0.90;99.90;;;;;;468089;251;27528;-73
2024/02/29 00:07:27;;;;;;;13.60;8.68;;;0.90;99.90;;;;;;476832;249;27403;-72
2024/02/29 00:09:29;;;;;;;12.75;8.38;;;0.90;99.90;;;;;;468117;251;27469;-73
2024/02/29 00:11:30;;;;;;;13.90;8.98;;;0.70;99.90;;;;;;476988;249;27902;-73
2024/02/29 00:13:31;;;;;;;13.88;8.82;;;0.70;99.90;;;;;;468074;251;28667;-72
2024/02/29 00:15:32;;;;;;;13.70;8.18;;;0.70;99.90;;;;;;476957;249;27976;-73
2024/02/29 00:17:34;;;;;;;14.15;8.95;;;0.70;99.90;;;;;;468099;251;27572;-74
2024/02/29 00:19:35;;;;;;;12.93;8.20;;;0.70;99.90;;;;;;476982;249;27414;-73
2024/02/29 00:21:36;;;;;;;14.15;9.00;;;0.80;99.90;;;;;;468105;251;27450;-73
2024/02/29 00:23:37;;;;;;;12.45;8.48;;;0.70;99.90;;;;;;476960;249;27501;-73
2024/02/29 00:25:39;;;;;;;15.63;9.57;;;0.80;99.90;;;;;;468105;251;27450;-73
2024/02/29 00:27:40;;;;;;;13.93;9.25;;;0.80;99.90;;;;;;476978;249;27518;-74
2024/02/29 00:29:41;;;;;;;14.87;9.25;;;0.70;99.90;;;;;;468096;251;27423;-73
2024/02/29 00:31:43;;;;;;;13.65;9.02;;;0.70;99.90;;;;;;476944;249;28008;-73
2024/02/29 00:33:44;;;;;;;15.85;9.13;;;0.70;99.90;;;;;;468015;254;28657;-73
2024/02/29 00:35:45;;;;;;;12.77;8.80;;;0.70;99.90;;;;;;477006;249;27866;-73
2024/02/29 00:37:46;;;;;;;16.20;8.02;;;0.80;99.90;;;;;;468073;251;27462;-73
2024/02/29 00:39:47;;;;;;;12.05;7.75;;;0.80;99.90;;;;;;476963;249;27411;-73
2024/02/29 00:41:49;;;;;;;13.88;8.88;;;0.80;99.90;;;;;;468094;251;27529;-72
2024/02/29 00:43:50;;;;;;;14.60;9.40;;;0.90;99.90;;;;;;476981;249;27770;-74
2024/02/29 00:45:52;;;;;;;10.15;7.70;;;0.90;99.90;;;;;;468118;251;27878;-73
2024/02/29 00:47:54;;;;;;;14.50;8.88;;;0.90;99.90;;;;;;476960;249;27918;-73
2024/02/29 00:49:54;;;;;;;16.35;9.80;;;1.00;99.90;;;;;;468007;254;27417;-73
2024/02/29 00:51:55;;;;;;;12.37;8.50;;;0.90;99.90;;;;;;476961;249;27438;-73
2024/02/29 00:53:56;;;;;;;13.70;8.40;;;1.00;99.90;;;;;;468092;251;27537;-74
2024/02/29 00:55:58;;;;;;;13.18;8.80;;;1.00;99.90;;;;;;476967;249;27483;-73
2024/02/29 00:57:59;;;;;;;15.60;9.05;;;1.00;99.90;;;;;;468047;251;27506;-73
2024/02/29 01:00:00;;;;;;;13.13;9.02;;;1.10;99.90;;;;;;476965;249;27417;-73
2024/02/29 01:02:03;;;;;;;13.25;8.60;;;1.00;99.90;;;;;;468126;251;27506;-73
2024/02/29 01:04:03;;;;;;;16.10;9.43;;;0.90;99.90;;;;;;476886;249;27918;-73
2024/02/29 01:06:04;;;;;;;13.07;9.20;;;0.80;99.90;;;;;;468050;251;27893;-73
2024/02/29 01:08:05;;;;;;;13.00;8.88;;;0.70;99.90;;;;;;476919;249;27913;-73
2024/02/29 01:10:06;;;;;;;13.45;9.65;;;0.70;99.90;;;;;;468146;251;27469;-74
2024/02/29 01:12:08;;;;;;;15.18;9.90;;;0.70;99.90;;;;;;477001;249;27397;-73
2024/02/29 01:14:09;;;;;;;12.18;9.50;;;0.80;99.90;;;;;;468134;251;27480;-73
2024/02/29 01:16:10;;;;;;;13.50;8.60;;;0.80;99.90;;;;;;476952;249;27399;-73
2024/02/29 01:18:11;;;;;;;14.60;8.82;;;0.90;99.90;;;;;;468099;251;27469;-72
2024/02/29 01:20:13;;;;;;;18.20;9.77;;;0.90;99.90;;;;;;477045;249;27438;-73
2024/02/29 01:22:14;;;;;;;26.50;13.60;;;1.00;99.90;;;;;;468145;251;27469;-72
2024/02/29 01:24:15;;;;;;;27.15;12.68;;;1.10;99.90;;;;;;477006;249;27910;-73
2024/02/29 01:26:16;;;;;;;31.52;14.43;;;1.10;99.90;;;;;;468115;251;29730;-73
2024/02/29 01:28:18;;;;;;;30.52;14.20;;;1.10;99.90;;;;;;477001;249;27398;-73
2024/02/29 01:30:19;;;;;;;33.30;16.17;;;1.10;99.90;;;;;;468152;248;27450;-73
2024/02/29 01:32:20;;;;;;;38.03;17.08;;;1.20;99.90;;;;;;477007;249;27403;-72
2024/02/29 01:34:21;;;;;;;42.80;18.62;;;1.20;99.90;;;;;;468126;251;27533;-73
2024/02/29 01:36:23;;;;;;;35.63;15.25;;;1.20;99.90;;;;;;477064;249;27775;-75
2024/02/29 01:38:24;;;;;;;33.60;15.30;;;1.20;99.90;;;;;;468116;251;27425;-72
2024/02/29 01:40:25;;;;;;;35.33;15.18;;;1.20;99.90;;;;;;477019;249;27922;-73
2024/02/29 01:42:26;;;;;;;43.08;17.12;;;1.20;99.90;;;;;;468131;251;27869;-73
2024/02/29 01:44:28;;;;;;;34.00;17.23;;;1.20;99.90;;;;;;476994;249;27427;-73
2024/02/29 01:46:30;;;;;;;36.53;15.82;;;1.20;99.90;;;;;;468134;251;27485;-74
2024/02/29 01:48:30;;;;;;;40.05;16.62;;;1.10;99.90;;;;;;476955;249;27393;-73
2024/02/29 01:50:31;;;;;;;33.80;15.57;;;1.00;99.90;;;;;;468093;251;27498;-73
2024/02/29 01:52:33;;;;;;;32.47;15.80;;;1.00;99.90;;;;;;476934;249;27469;-73
2024/02/29 01:54:34;;;;;;;28.42;16.02;;;1.00;99.90;;;;;;468132;251;27517;-72
2024/02/29 01:56:35;;;;;;;30.42;15.65;;;1.00;99.90;;;;;;476992;249;27953;-74
2024/02/29 01:58:36;;;;;;;29.33;15.18;;;0.90;99.90;;;;;;468071;251;27897;-73
2024/02/29 02:00:38;;;;;;;28.00;13.65;;;0.90;99.90;;;;;;476977;249;27450;-73
2024/02/29 02:02:39;;;;;;;24.55;12.73;;;0.90;99.90;;;;;;468118;251;27559;-73
2024/02/29 02:04:40;;;;;;;23.87;12.95;;;0.90;99.90;;;;;;476958;249;27406;-73
2024/02/29 02:06:42;;;;;;;22.67;12.18;;;0.90;99.90;;;;;;468058;251;27466;-73
2024/02/29 02:08:43;;;;;;;24.08;12.77;;;0.90;99.90;;;;;;476860;249;27464;-73
2024/02/29 02:10:44;;;;;;;20.45;11.57;;;0.80;99.90;;;;;;468054;251;27952;-73
2024/02/29 02:12:47;;;;;;;20.23;11.48;;;0.90;99.90;;;;;;476987;249;27929;-74
2024/02/29 02:14:47;;;;;;;16.08;10.00;;;0.90;99.90;;;;;;467979;254;27517;-73
2024/02/29 02:16:48;;;;;;;16.55;10.80;;;0.80;99.90;;;;;;476964;249;27525;-73
2024/02/29 02:18:49;;;;;;;20.02;9.93;;;0.80;99.90;;;;;;468028;251;27506;-72
2024/02/29 02:20:53;;;;;;;18.50;10.93;;;0.70;99.90;;;;;;476993;249;27510;-73
2024/02/29 02:22:52;;;;;;;16.50;10.25;;;0.70;99.90;;;;;;467962;254;27462;-74
2024/02/29 02:24:53;;;;;;;18.30;11.82;;;0.60;99.90;;;;;;476972;249;27458;-72
2024/02/29 02:26:54;;;;;;;16.67;10.30;;;0.60;99.90;;;;;;468061;251;27950;-73
2024/02/29 02:28:55;;;;;;;15.52;9.68;;;0.60;99.90;;;;;;476985;249;28003;-74
2024/02/29 02:30:57;;;;;;;16.33;9.95;;;0.50;99.90;;;;;;468134;251;27897;-73
2024/02/29 02:32:58;;;;;;;13.75;8.88;;;0.50;99.90;;;;;;476978;249;27510;-73
2024/02/29 02:34:59;;;;;;;16.20;10.80;;;0.40;99.90;;;;;;468092;251;27514;-74
2024/02/29 02:37:00;;;;;;;16.98;9.75;;;0.40;99.90;;;;;;476912;249;27462;-73
2024/02/29 02:39:02;;;;;;;16.85;10.00;;;0.40;99.90;;;;;;468124;251;27552;-74
2024/02/29 02:41:03;;;;;;;14.55;9.45;;;0.50;99.90;;;;;;476979;249;27468;-73
2024/02/29 02:43:04;;;;;;;15.55;9.85;;;0.40;99.90;;;;;;468094;251;27574;-73
2024/02/29 02:45:05;;;;;;;16.42;9.95;;;0.40;99.90;;;;;;476971;249;27907;-73
2024/02/29 02:47:07;;;;;;;18.40;9.85;;;0.40;99.90;;;;;;468088;251;28023;-73
2024/02/29 02:49:08;;;;;;;21.10;10.63;;;0.30;99.90;;;;;;477000;249;28044;-74
2024/02/29 02:51:09;;;;;;;18.05;10.48;;;0.30;99.90;;;;;;468082;251;27410;-73
2024/02/29 02:53:10;;;;;;;26.05;12.15;;;0.20;99.90;;;;;;476939;249;27453;-73
2024/02/29 02:55:12;;;;;;;22.25;12.35;;;0.20;99.90;;;;;;468129;251;27473;-73
2024/02/29 02:57:13;;;;;;;19.50;11.43;;;0.20;99.90;;;;;;476961;249;27469;-73
2024/02/29 02:59:14;;;;;;;23.50;12.30;;;0.10;99.90;;;;;;468095;251;27557;-73
2024/02/29 03:01:16;;;;;;;23.65;11.60;;;0.10;99.90;;;;;;476966;249;27534;-72
2024/02/29 03:03:17;;;;;;;20.55;11.50;;;0.00;99.90;;;;;;468070;251;27954;-73
2024/02/29 03:05:20;;;;;;;18.87;10.25;;;0.10;99.90;;;;;;476991;249;28050;-74
2024/02/29 03:07:19;;;;;;;21.02;11.68;;;0.10;99.90;;;;;;467986;254;27514;-72
2024/02/29 03:09:20;;;;;;;16.70;9.50;;;0.10;99.90;;;;;;476965;249;27478;-73
2024/02/29 03:11:22;;;;;;;16.37;9.90;;;0.00;99.90;;;;;;468100;251;27405;-73
2024/02/29 03:13:23;;;;;;;15.75;10.05;;;0.10;99.90;;;;;;476983;249;27458;-73
2024/02/29 03:15:24;;;;;;;17.30;10.30;;;0.10;99.90;;;;;;468094;251;27500;-73
2024/02/29 03:17:26;;;;;;;15.18;9.52;;;0.00;99.90;;;;;;476956;249;27537;-73
2024/02/29 03:19:27;;;;;;;16.42;9.73;;;0.00;99.90;;;;;;468062;251;28059;-73
2024/02/29 03:21:31;;;;;;;23.05;10.90;;;-0.10;99.90;;;;;;476972;249;28360;-73
2024/02/29 03:23:32;;;;;;;19.60;11.00;;;-0.10;99.90;;;;;;468081;251;28695;-73
2024/02/29 03:25:33;;;;;;;20.15;10.50;;;-0.10;99.90;;;;;;477012;249;28046;-72
2024/02/29 03:27:35;;;;;;;21.50;11.23;;;-0.20;99.90;;;;;;468092;251;27450;-73
2024/02/29 03:29:36;;;;;;;23.87;12.43;;;-0.20;99.90;;;;;;476980;249;27434;-72
2024/02/29 03:31:37;;;;;;;23.38;12.65;;;-0.20;99.90;;;;;;468083;251;27476;-72
2024/02/29 03:33:38;;;;;;;19.35;11.25;;;-0.20;99.90;;;;;;476972;249;27871;-75
2024/02/29 03:35:40;;;;;;;21.90;11.48;;;-0.20;99.90;;;;;;468096;251;27996;-73
2024/02/29 03:37:41;;;;;;;20.75;12.10;;;-0.20;99.90;;;;;;476954;249;27937;-73
2024/02/29 03:39:42;;;;;;;26.60;11.77;;;-0.20;99.90;;;;;;468114;251;27414;-73
2024/02/29 03:41:43;;;;;;;21.17;12.13;;;-0.30;99.90;;;;;;476982;249;27438;-73
2024/02/29 03:43:45;;;;;;;19.42;10.98;;;-0.30;99.90;;;;;;468091;251;27465;-75
2024/02/29 03:45:46;;;;;;;19.35;11.60;;;-0.30;99.90;;;;;;476971;249;27466;-72
2024/02/29 03:47:47;;;;;;;15.85;9.85;;;-0.30;99.90;;;;;;468071;251;27480;-73
2024/02/29 03:49:48;;;;;;;16.77;10.35;;;-0.20;99.90;;;;;;476961;249;28622;-73
2024/02/29 03:51:50;;;;;;;17.12;9.40;;;-0.20;99.90;;;;;;468124;251;27961;-73
2024/02/29 03:53:51;;;;;;;16.85;10.25;;;-0.20;99.90;;;;;;476984;249;27530;-72
2024/02/29 03:55:52;;;;;;;20.52;11.00;;;-0.20;99.90;;;;;;468098;251;27415;-73
2024/02/29 03:57:53;;;;;;;18.77;11.75;;;-0.20;99.90;;;;;;476940;249;27454;-73
2024/02/29 03:59:55;;;;;;;23.55;11.60;;;-0.30;99.90;;;;;;468121;251;27827;-74
2024/02/29 04:01:56;;;;;;;18.08;10.98;;;-0.30;99.90;;;;;;477019;249;27391;-72
2024/02/29 04:03:57;;;;;;;19.08;10.55;;;-0.30;99.90;;;;;;468072;251;27497;-73
2024/02/29 04:05:58;;;;;;;18.02;10.18;;;-0.30;99.90;;;;;;476953;249;27484;-73
2024/02/29 04:08:10;;;;;;;17.27;10.73;;;-0.30;99.90;;;;;;468089;251;27959;-72
2024/02/29 04:10:04;;;;;;;14.98;9.48;;;-0.40;99.90;;;;;;467865;254;27680;-73
2024/02/29 04:12:05;;;;;;;17.70;10.48;;;-0.30;99.90;;;;;;476984;249;27537;-73
2024/02/29 04:14:06;;;;;;;18.85;10.75;;;-0.30;99.90;;;;;;468073;251;28033;-72
2024/02/29 04:16:07;;;;;;;14.25;8.95;;;-0.30;99.90;;;;;;476972;249;28008;-73
2024/02/29 04:18:09;;;;;;;17.85;10.85;;;-0.40;99.90;;;;;;468069;251;27447;-72
2024/02/29 04:20:10;;;;;;;17.30;10.60;;;-0.40;99.90;;;;;;476874;249;27549;-72
2024/02/29 04:22:11;;;;;;;18.08;10.48;;;-0.40;99.90;;;;;;468075;251;27453;-74
2024/02/29 04:24:13;;;;;;;19.98;11.15;;;-0.40;99.90;;;;;;476959;249;27410;-73
2024/02/29 04:26:14;;;;;;;18.60;11.00;;;-0.40;99.90;;;;;;468102;251;27476;-73
2024/02/29 04:28:17;;;;;;;16.75;10.70;;;-0.40;99.90;;;;;;476913;249;27965;-74
2024/02/29 04:30:16;;;;;;;18.42;10.50;;;-0.50;99.90;;;;;;467966;251;27425;-73
2024/02/29 04:32:19;;;;;;;15.13;10.07;;;-0.60;99.90;;;;;;476963;249;27552;-73
2024/02/29 04:34:19;;;;;;;16.40;10.07;;;-0.60;99.90;;;;;;467973;254;27509;-73
2024/02/29 04:36:20;;;;;;;14.38;9.25;;;-0.60;99.90;;;;;;477001;249;27508;-72
2024/02/29 04:38:22;;;;;;;17.62;9.40;;;-0.70;99.90;;;;;;468078;251;27465;-74
2024/02/29 04:40:23;;;;;;;17.73;10.95;;;-0.60;99.90;;;;;;476961;249;27958;-72
2024/02/29 04:42:24;;;;;;;17.75;10.20;;;-0.60;99.90;;;;;;468074;251;29155;-73
2024/02/29 04:44:25;;;;;;;14.32;9.13;;;-0.70;99.90;;;;;;476969;249;27552;-73
2024/02/29 04:46:26;;;;;;;15.18;9.23;;;-0.60;99.90;;;;;;468118;251;27422;-72
2024/02/29 04:48:28;;;;;;;17.98;10.57;;;-0.60;99.90;;;;;;476921;249;27452;-73
2024/02/29 04:50:29;;;;;;;16.73;10.85;;;-0.60;99.90;;;;;;468117;251;27478;-73
2024/02/29 04:52:30;;;;;;;19.50;10.45;;;-0.60;99.90;;;;;;476941;249;27446;-73
2024/02/29 04:54:31;;;;;;;16.42;9.43;;;-0.70;99.90;;;;;;468098;251;28088;-73
2024/02/29 04:56:35;;;;;;;22.58;10.48;;;-0.70;99.90;;;;;;476978;249;27870;-72
2024/02/29 04:58:34;;;;;;;17.12;10.65;;;-0.80;99.90;;;;;;467991;251;27462;-73
2024/02/29 05:00:35;;;;;;;16.62;11.48;;;-0.80;99.90;;;;;;476939;249;27524;-73
2024/02/29 05:02:37;;;;;;;17.75;10.50;;;-0.80;99.90;;;;;;468120;251;27434;-72
2024/02/29 05:04:38;;;;;;;18.42;10.20;;;-0.80;99.90;;;;;;476977;249;27569;-73
2024/02/29 05:06:39;;;;;;;19.98;10.30;;;-0.80;99.90;;;;;;468088;251;27880;-72
2024/02/29 05:08:40;;;;;;;15.80;10.55;;;-0.90;99.90;;;;;;476925;249;28064;-72
2024/02/29 05:10:41;;;;;;;15.68;10.05;;;-0.90;99.90;;;;;;468119;251;27544;-73
2024/02/29 05:12:43;;;;;;;19.35;10.45;;;-0.90;99.90;;;;;;476985;249;27399;-72
2024/02/29 05:14:44;;;;;;;19.25;10.70;;;-0.90;99.90;;;;;;468069;251;27476;-73
2024/02/29 05:16:45;;;;;;;20.40;10.35;;;-0.90;99.90;;;;;;476939;249;27405;-72
2024/02/29 05:18:47;;;;;;;15.95;10.45;;;-0.90;99.90;;;;;;468053;251;27446;-73
2024/02/29 05:20:48;;;;;;;21.37;11.40;;;-0.80;99.90;;;;;;476886;249;27965;-73
2024/02/29 05:22:53;;;;;;;16.58;9.93;;;-0.90;99.90;;;;;;468081;251;27469;-73
2024/02/29 05:24:50;;;;;;;18.83;10.70;;;-0.90;99.90;;;;;;476669;249;27430;-73
2024/02/29 05:26:52;;;;;;;16.35;10.65;;;-0.90;99.90;;;;;;468066;251;27437;-73
2024/02/29 05:28:53;;;;;;;19.30;11.40;;;-0.90;99.90;;;;;;476991;249;27485;-73
2024/02/29 05:30:54;;;;;;;31.10;12.25;;;-0.80;99.90;;;;;;468018;254;27466;-73
2024/02/29 05:32:55;;;;;;;17.87;10.25;;;-0.90;99.90;;;;;;476918;249;27886;-72
2024/02/29 05:34:57;;;;;;;18.42;10.68;;;-0.90;99.90;;;;;;467994;251;29143;-73
2024/02/29 05:36:58;;;;;;;20.42;11.95;;;-0.90;99.90;;;;;;476802;249;27509;-74
2024/02/29 05:38:59;;;;;;;17.17;11.23;;;-0.80;99.90;;;;;;468040;254;27418;-73
2024/02/29 05:41:00;;;;;;;18.27;10.82;;;-0.80;99.90;;;;;;476958;249;27549;-73
2024/02/29 05:43:03;;;;;;;17.27;10.32;;;-0.90;99.90;;;;;;468073;251;27406;-73
2024/02/29 05:45:06;;;;;;;18.92;11.95;;;-1.00;99.90;;;;;;476934;249;27945;-73
2024/02/29 05:47:04;;;;;;;24.10;11.80;;;-1.00;99.90;;;;;;467928;254;28032;-73
2024/02/29 05:49:06;;;;;;;17.42;10.20;;;-1.00;99.90;;;;;;477006;249;27395;-73
2024/02/29 05:51:11;;;;;;;14.75;9.23;;;-1.00;99.90;;;;;;468129;251;27453;-73
2024/02/29 05:53:08;;;;;;;19.35;10.85;;;-1.00;99.90;;;;;;476165;249;27382;-72
2024/02/29 05:55:09;;;;;;;17.35;10.32;;;-1.00;99.90;;;;;;477009;249;27416;-73
2024/02/29 05:57:10;;;;;;;19.23;11.52;;;-1.10;99.90;;;;;;468092;251;27493;-73
2024/02/29 05:59:12;;;;;;;16.90;10.70;;;-1.20;99.90;;;;;;476989;249;27875;-73
2024/02/29 06:01:13;;;;;;;19.95;10.95;;;-1.10;99.90;;;;;;468094;251;27464;-73
2024/02/29 06:03:14;;;;;;;19.17;11.63;;;-1.10;99.90;;;;;;477022;249;27473;-74
2024/02/29 06:05:15;;;;;;;18.33;11.15;;;-1.10;99.90;;;;;;468154;251;27506;-73
2024/02/29 06:07:17;;;;;;;23.20;12.27;;;-1.10;99.90;;;;;;476969;249;27485;-73
2024/02/29 06:09:18;;;;;;;21.42;11.20;;;-1.10;99.90;;;;;;468134;251;27506;-73
2024/02/29 06:11:19;;;;;;;18.85;10.70;;;-1.10;99.90;;;;;;477011;249;27886;-73
2024/02/29 06:13:21;;;;;;;19.05;11.73;;;-1.10;99.90;;;;;;468141;251;27969;-74
2024/02/29 06:15:22;;;;;;;21.83;12.25;;;-1.10;99.90;;;;;;476977;249;27388;-72
2024/02/29 06:17:23;;;;;;;24.05;12.82;;;-1.10;99.90;;;;;;468054;251;27446;-73
2024/02/29 06:19:25;;;;;;;20.05;11.12;;;-1.30;99.90;;;;;;476965;249;27529;-73
2024/02/29 06:21:26;;;;;;;17.17;11.32;;;-1.30;99.90;;;;;;468117;251;27545;-73
2024/02/29 06:23:27;;;;;;;17.33;10.55;;;-1.30;99.90;;;;;;476993;249;28021;-73
2024/02/29 06:25:28;;;;;;;18.33;11.38;;;-1.30;99.90;;;;;;468098;251;28969;-73
2024/02/29 06:27:30;;;;;;;23.45;12.10;;;-1.30;99.90;;;;;;476927;249;27462;-72
2024/02/29 06:29:31;;;;;;;17.48;11.15;;;-1.30;99.90;;;;;;468135;251;27453;-74
2024/02/29 06:31:32;;;;;;;20.42;12.00;;;-1.30;99.90;;;;;;476992;249;27474;-73
2024/02/29 06:33:33;;;;;;;21.25;11.80;;;-1.20;99.90;;;;;;468130;251;27469;-73
2024/02/29 06:35:34;;;;;;;18.83;11.07;;;-1.10;99.90;;;;;;476984;249;27471;-73
2024/02/29 06:37:36;;;;;;;18.75;11.68;;;-1.10;99.90;;;;;;468096;251;27907;-72
2024/02/29 06:39:37;;;;;;;22.23;12.25;;;-1.10;99.90;;;;;;477018;249;27462;-74
2024/02/29 06:41:38;;;;;;;20.98;10.55;;;-1.00;99.90;;;;;;468097;251;27553;-73
2024/02/29 06:43:39;;;;;;;19.60;10.80;;;-1.00;99.90;;;;;;476971;249;27475;-73
2024/02/29 06:45:41;;;;;;;21.02;12.02;;;-1.00;99.90;;;;;;468073;251;27481;-72
2024/02/29 06:47:42;;;;;;;18.37;10.18;;;-0.90;99.90;;;;;;476977;249;27403;-73
2024/02/29 06:49:43;;;;;;;16.55;10.55;;;-0.90;99.90;;;;;;468049;251;27958;-72
2024/02/29 06:51:44;;;;;;;16.73;10.65;;;-0.90;99.90;;;;;;476982;249;27572;-73
2024/02/29 06:53:46;;;;;;;16.50;9.32;;;-0.90;99.90;;;;;;468034;251;27470;-73
2024/02/29 06:55:47;;;;;;;14.10;9.82;;;-0.80;99.90;;;;;;476997;249;27440;-73
2024/02/29 06:57:48;;;;;;;16.37;9.75;;;-0.80;99.90;;;;;;468085;251;27426;-73
2024/02/29 06:59:49;;;;;;;19.37;10.40;;;-0.80;99.90;;;;;;476994;249;27546;-73
2024/02/29 07:01:51;;;;;;;19.92;11.82;;;-0.70;99.90;;;;;;468084;251;27422;-73
2024/02/29 07:03:52;;;;;;;19.20;10.98;;;-0.70;99.90;;;;;;476984;249;27870;-73
2024/02/29 07:05:54;;;;;;;16.48;10.25;;;-0.70;99.90;;;;;;468124;251;27484;-74
2024/02/29 07:07:55;;;;;;;18.67;10.65;;;-0.70;99.90;;;;;;476901;249;27533;-73
2024/02/29 07:09:56;;;;;;;16.27;10.10;;;-0.70;99.90;;;;;;468092;251;27469;-73
2024/02/29 07:11:57;;;;;;;15.75;9.65;;;-0.60;99.90;;;;;;476975;249;27504;-73
2024/02/29 07:13:59;;;;;;;20.02;11.63;;;-0.60;99.90;;;;;;468108;251;27426;-73
2024/02/29 07:16:00;;;;;;;19.08;11.15;;;-0.70;99.90;;;;;;476967;249;27919;-73
2024/02/29 07:18:01;;;;;;;16.87;11.35;;;-0.70;99.90;;;;;;468077;251;29145;-73
2024/02/29 07:20:04;;;;;;;18.35;11.10;;;-0.80;99.90;;;;;;476951;249;27490;-73
2024/02/29 07:22:03;;;;;;;18.65;10.90;;;-0.70;99.90;;;;;;468032;254;27477;-74
2024/02/29 07:24:05;;;;;;;17.23;11.43;;;-0.70;99.90;;;;;;476999;249;27482;-73
2024/02/29 07:26:06;;;;;;;20.17;11.25;;;-0.70;99.90;;;;;;468115;251;27537;-73
2024/02/29 07:28:08;;;;;;;23.75;12.10;;;-0.70;99.90;;;;;;476913;249;27938;-73
2024/02/29 07:30:08;;;;;;;20.88;11.70;;;-0.60;99.90;;;;;;468125;251;28007;-72
2024/02/29 07:32:10;;;;;;;23.65;13.05;;;-0.60;99.90;;;;;;477015;249;27437;-73
2024/02/29 07:34:15;;;;;;;20.80;11.63;;;-0.50;99.90;;;;;;468085;251;27418;-73
2024/02/29 07:36:12;;;;;;;18.00;10.02;;;-0.40;99.90;;;;;;476715;249;27434;-72
2024/02/29 07:38:13;;;;;;;21.95;11.12;;;-0.40;99.90;;;;;;468070;251;27470;-74
2024/02/29 07:40:15;;;;;;;19.40;11.25;;;-0.40;99.90;;;;;;477012;249;27457;-73
2024/02/29 07:42:16;;;;;;;21.48;11.38;;;-0.40;99.90;;;;;;468110;251;27961;-74
2024/02/29 07:44:17;;;;;;;19.55;10.95;;;-0.30;99.90;;;;;;476955;249;27470;-72
2024/02/29 07:46:18;;;;;;;15.27;10.20;;;-0.30;99.90;;;;;;468075;251;27492;-72
2024/02/29 07:48:20;;;;;;;17.52;10.52;;;-0.20;99.90;;;;;;476981;249;27481;-74
2024/02/29 07:50:21;;;;;;;21.50;12.48;;;-0.20;99.90;;;;;;468119;251;27489;-73
2024/02/29 07:52:22;;;;;;;19.92;10.80;;;-0.20;99.90;;;;;;476952;249;27465;-73
2024/02/29 07:54:24;;;;;;;18.55;9.95;;;-0.10;99.90;;;;;;468061;251;28671;-73
2024/02/29 07:56:25;;;;;;;19.55;11.35;;;0.00;99.90;;;;;;476987;249;27933;-72
2024/02/29 07:58:26;;;;;;;20.40;11.40;;;0.00;99.90;;;;;;468071;251;27549;-74
2024/02/29 08:00:27;;;;;;;17.08;10.40;;;0.00;99.90;;;;;;476983;249;27402;-73
2024/02/29 08:02:29;;;;;;;26.00;12.98;;;0.10;99.90;;;;;;468058;251;27445;-73
2024/02/29 08:04:30;;;;;;;21.45;11.90;;;0.20;99.90;;;;;;476988;249;27465;-73
2024/02/29 08:06:31;;;;;;;16.55;9.77;;;0.30;99.90;;;;;;468119;251;27438;-72
2024/02/29 08:08:32;;;;;;;20.42;12.25;;;0.30;99.90;;;;;;476955;249;27557;-73
2024/02/29 08:10:34;;;;;;;18.90;10.45;;;0.40;99.90;;;;;;468112;251;27958;-73
2024/02/29 08:12:35;;;;;;;19.17;10.60;;;0.40;99.90;;;;;;476953;249;28008;-73
2024/02/29 08:14:36;;;;;;;21.33;10.93;;;0.40;99.90;;;;;;468123;251;27557;-74
2024/02/29 08:16:37;;;;;;;19.05;10.32;;;0.50;99.90;;;;;;476979;249;27531;-73
2024/02/29 08:18:39;;;;;;;17.48;10.95;;;0.60;99.90;;;;;;468066;251;27482;-73
2024/02/29 08:20:40;;;;;;;18.48;10.38;;;0.60;99.90;;;;;;476978;249;27418;-72
2024/02/29 08:22:41;;;;;;;13.93;9.40;;;0.70;99.90;;;;;;468116;251;27429;-73
2024/02/29 08:24:42;;;;;;;16.00;9.70;;;0.80;99.90;;;;;;476976;249;27478;-73
2024/02/29 08:26:44;;;;;;;17.52;9.90;;;0.80;99.90;;;;;;468089;251;28010;-72
2024/02/29 08:28:45;;;;;;;20.75;12.00;;;0.90;99.90;;;;;;476783;249;28058;-73
2024/02/29 08:30:46;;;;;;;19.33;11.40;;;1.00;99.90;;;;;;468122;251;28026;-73
2024/02/29 08:32:48;;;;;;;18.55;10.20;;;1.10;99.90;;;;;;476980;249;27406;-73
2024/02/29 08:34:49;;;;;;;19.98;10.60;;;1.20;99.90;;;;;;468067;251;27564;-74
2024/02/29 08:36:50;;;;;;;17.65;10.52;;;1.20;99.90;;;;;;476976;249;27411;-73
2024/02/29 08:38:51;;;;;;;19.80;11.73;;;1.30;99.90;;;;;;468017;251;27496;-73
2024/02/29 08:40:52;;;;;;;17.50;10.52;;;1.40;99.90;;;;;;477012;249;27446;-73
2024/02/29 08:42:54;;;;;;;16.50;10.70;;;1.40;99.90;;;;;;468081;251;27903;-73
2024/02/29 08:44:55;;;;;;;21.92;11.32;;;1.50;99.90;;;;;;476989;249;28048;-73
2024/02/29 08:46:57;;;;;;;20.60;11.82;;;1.60;99.90;;;;;;468092;251;27421;-73
2024/02/29 08:48:57;;;;;;;17.20;10.18;;;1.70;99.90;;;;;;476942;249;27429;-73
2024/02/29 08:50:59;;;;;;;19.35;12.80;;;1.80;99.90;;;;;;468128;253;27473;-73
2024/02/29 08:53:00;;;;;;;25.80;11.80;;;1.90;99.90;;;;;;476987;249;27513;-73
2024/02/29 08:55:01;;;;;;;20.42;11.98;;;2.00;99.90;;;;;;468098;251;27472;-73
2024/02/29 08:57:07;;;;;;;21.12;11.80;;;2.10;99.90;;;;;;476930;249;27470;-73
2024/02/29 08:59:04;;;;;;;20.95;12.35;;;2.10;99.90;;;;;;467739;254;27871;-73
2024/02/29 09:01:05;;;;;;;17.62;11.20;;;2.30;99.90;;;;;;477001;249;28040;-74
2024/02/29 09:03:08;;;;;;;20.60;11.43;;;2.40;99.90;;;;;;468092;251;27417;-73
2024/02/29 09:05:07;;;;;;;17.25;10.05;;;2.50;99.90;;;;;;476643;249;27513;-73
2024/02/29 09:07:09;;;;;;;17.35;10.80;;;2.50;99.90;;;;;;468092;251;27788;-74
2024/02/29 09:09:10;;;;;;;20.92;12.15;;;2.60;99.90;;;;;;476941;249;27482;-73
2024/02/29 09:11:11;;;;;;;20.55;12.80;;;2.80;99.90;;;;;;468115;251;27478;-73
2024/02/29 09:13:13;;;;;;;21.60;12.85;;;2.90;99.90;;;;;;476963;249;27470;-73
2024/02/29 09:15:14;;;;;;;22.83;14.07;;;3.00;99.90;;;;;;468096;253;27882;-71
2024/02/29 09:17:15;;;;;;;22.75;12.90;;;3.10;99.90;;;;;;476995;249;29088;-71
2024/02/29 09:19:16;;;;;;;20.90;12.77;;;3.20;99.90;;;;;;468108;251;27419;-70
2024/02/29 09:21:18;;;;;;;25.65;12.93;;;3.40;99.90;;;;;;476986;249;27438;-71
2024/02/29 09:23:19;;;;;;;22.95;14.15;;;3.40;99.90;;;;;;468100;251;27532;-71
2024/02/29 09:25:20;;;;;;;20.52;12.77;;;3.50;99.90;;;;;;477029;249;27501;-71
2024/02/29 09:27:21;;;;;;;21.75;14.32;;;3.60;99.90;;;;;;468077;253;27466;-72
2024/02/29 09:29:23;;;;;;;23.48;14.50;;;3.70;99.90;;;;;;477009;249;27857;-71
2024/02/29 09:31:24;;;;;;;19.40;11.70;;;3.80;99.90;;;;;;468112;251;28040;-71
2024/02/29 09:33:25;;;;;;;19.25;13.00;;;3.90;99.90;;;;;;477014;249;27462;-71
2024/02/29 09:35:26;;;;;;;16.20;11.30;;;3.90;99.90;;;;;;468111;251;27478;-71
2024/02/29 09:37:28;;;;;;;20.33;12.90;;;3.90;99.90;;;;;;476975;249;27526;-71
2024/02/29 09:39:29;;;;;;;18.25;12.30;;;4.00;99.90;;;;;;468113;251;27429;-73
2024/02/29 09:41:30;;;;;;;17.40;11.25;;;4.10;99.90;;;;;;476992;249;27513;-74
2024/02/29 09:43:31;;;;;;;19.77;11.75;;;4.20;99.90;;;;;;468138;251;28037;-74
2024/02/29 09:45:34;;;;;;;24.67;13.52;;;4.30;99.90;;;;;;477012;249;29060;-73
2024/02/29 09:47:34;;;;;;;14.87;10.30;;;4.30;99.90;;;;;;468041;254;27593;-73
2024/02/29 09:49:35;;;;;;;15.30;11.27;;;4.40;99.90;;;;;;476992;249;27520;-73
2024/02/29 09:51:36;;;;;;;24.75;13.80;;;4.50;99.90;;;;;;468137;251;27440;-73
2024/02/29 09:53:38;;;;;;;16.05;10.43;;;4.60;99.90;;;;;;477018;249;27476;-73
2024/02/29 09:55:39;;;;;;;20.90;12.32;;;4.70;99.90;;;;;;468094;251;27481;-73
2024/02/29 09:57:41;;;;;;;15.05;10.20;;;4.80;99.90;;;;;;476924;249;28020;-73
2024/02/29 09:59:41;;;;;;;19.40;12.40;;;4.90;99.90;;;;;;468181;251;28093;-74
2024/02/29 10:01:43;;;;;;;14.20;9.98;;;4.90;99.90;;;;;;477023;249;27484;-73
2024/02/29 10:03:45;;;;;;;16.50;10.80;;;4.90;99.90;;;;;;468126;251;27466;-73
2024/02/29 10:05:45;;;;;;;18.00;11.60;;;5.20;99.90;;;;;;476985;249;27813;-73
2024/02/29 10:07:47;;;;;;;15.80;10.95;;;5.40;99.90;;;;;;468062;251;27458;-73
2024/02/29 10:09:48;;;;;;;15.93;10.77;;;5.50;99.90;;;;;;476954;249;27928;-73
2024/02/29 10:11:49;;;;;;;17.65;10.90;;;5.60;99.90;;;;;;468136;251;27423;-73
2024/02/29 10:13:53;;;;;;;17.25;10.07;;;5.70;99.90;;;;;;476972;249;27442;-74
2024/02/29 10:15:52;;;;;;;17.75;10.27;;;5.60;99.90;;;;;;467927;254;27497;-73
2024/02/29 10:17:54;;;;;;;13.95;9.98;;;5.70;99.90;;;;;;476995;249;27409;-73
2024/02/29 10:19:54;;;;;;;15.82;9.85;;;5.90;99.90;;;;;;468098;251;27906;-73
2024/02/29 10:21:56;;;;;;;12.63;8.82;;;6.10;99.90;;;;;;476977;249;27925;-73